Time;durP1;ratioP1;P1;durP2;ratioP2;P2;SDS_P1;SDS_P2;PMS_P1;PMS_P2;Temp;Humidity;BMP_temperature;BMP_pressure;BME280_temperature;BME280_humidity;BME280_pressure;Samples;Min_cycle;Max_cycle;Signal;HPM_P1;HPM_P2
2021/04/05 00:00:22;;;;;;;7.07;3.30;;;;;;;5.14;48.95;96083.78;5110558;28;20081;-67
2021/04/05 00:02:49;;;;;;;7.72;3.55;;;;;;;5.14;49.16;96089.97;5110072;28;20048;-67
2021/04/05 00:05:19;;;;;;;5.95;3.33;;;;;;;5.12;48.99;96085.97;5110295;28;20505;-67
2021/04/05 00:07:46;;;;;;;7.95;3.78;;;;;;;5.03;49.09;96082.31;5110389;28;20054;-67
2021/04/05 00:10:14;;;;;;;5.53;3.05;;;;;;;4.96;49.50;96077.25;5109686;28;20040;-67
2021/04/05 00:12:40;;;;;;;6.55;3.50;;;;;;;4.98;50.04;96062.38;5110777;28;20047;-67
2021/04/05 00:15:09;;;;;;;7.28;3.50;;;;;;;5.00;49.51;96055.88;5109557;28;20122;-68
2021/04/05 00:17:35;;;;;;;7.95;3.83;;;;;;;4.87;49.40;96057.41;5115116;28;20039;-67
2021/04/05 00:20:07;;;;;;;6.53;3.20;;;;;;;4.72;49.56;96050.28;5113537;28;20051;-68
2021/04/05 00:22:34;;;;;;;8.32;3.58;;;;;;;4.62;50.06;96050.41;5114979;28;20580;-67
2021/04/05 00:24:59;;;;;;;8.77;3.35;;;;;;;4.60;49.94;96053.41;5113778;28;20040;-67
2021/04/05 00:27:27;;;;;;;7.78;3.30;;;;;;;4.49;50.55;96056.47;5114184;28;20414;-67
2021/04/05 00:29:53;;;;;;;6.32;2.85;;;;;;;4.57;50.30;96053.16;5114296;28;20608;-67
2021/04/05 00:32:19;;;;;;;7.85;3.40;;;;;;;4.47;50.46;96047.88;5113647;28;20097;-67
2021/04/05 00:34:45;;;;;;;5.32;3.20;;;;;;;4.42;50.63;96040.66;5114670;28;20473;-67
2021/04/05 00:37:12;;;;;;;4.57;2.90;;;;;;;4.40;50.78;96032.06;5113309;28;20044;-67
2021/04/05 00:39:38;;;;;;;8.45;3.08;;;;;;;4.42;50.79;96027.97;5114847;28;20039;-67
2021/04/05 00:42:06;;;;;;;6.10;3.40;;;;;;;4.40;50.81;96022.06;5113056;28;20127;-68
2021/04/05 00:44:32;;;;;;;6.88;2.97;;;;;;;4.37;50.83;96027.22;5114618;28;20048;-67
2021/04/05 00:46:58;;;;;;;5.30;3.08;;;;;;;4.36;50.91;96015.63;5113560;28;20402;-67
2021/04/05 00:49:25;;;;;;;6.72;3.25;;;;;;;4.31;51.01;96021.09;5113577;28;20040;-67
2021/04/05 00:51:51;;;;;;;6.32;3.15;;;;;;;4.28;51.16;96018.97;5113702;28;20047;-67
2021/04/05 00:54:18;;;;;;;7.22;3.00;;;;;;;4.27;51.25;96011.16;5113597;28;20036;-67
2021/04/05 00:56:45;;;;;;;6.80;2.60;;;;;;;4.31;50.99;96010.31;5113794;28;20555;-67
2021/04/05 00:59:11;;;;;;;9.00;2.97;;;;;;;4.29;51.13;96003.59;5112985;28;20040;-67
2021/04/05 01:01:37;;;;;;;5.57;2.80;;;;;;;4.34;51.29;95990.06;5114286;28;20051;-67
2021/04/05 01:04:03;;;;;;;6.30;3.00;;;;;;;4.32;51.18;95993.03;5112759;28;20039;-67
2021/04/05 01:06:31;;;;;;;11.15;3.20;;;;;;;4.27;51.11;95994.97;5114508;28;20043;-67
2021/04/05 01:08:58;;;;;;;6.05;2.85;;;;;;;4.33;51.14;95986.56;5112912;28;20044;-67
2021/04/05 01:11:28;;;;;;;4.70;2.35;;;;;;;4.37;51.14;95984.88;5113652;28;20047;-67
2021/04/05 01:13:55;;;;;;;5.95;2.80;;;;;;;4.43;51.03;95982.94;5113129;28;20518;-67
2021/04/05 01:16:22;;;;;;;7.10;2.95;;;;;;;4.31;51.07;95975.25;5113214;28;20561;-67
2021/04/05 01:18:48;;;;;;;4.70;2.80;;;;;;;4.34;51.03;95980.09;5113429;28;20101;-67
2021/04/05 01:21:15;;;;;;;7.18;2.80;;;;;;;4.28;51.15;95978.53;5112752;28;20066;-67
2021/04/05 01:23:42;;;;;;;6.68;2.70;;;;;;;4.31;50.98;95979.84;5113545;28;20397;-67
2021/04/05 01:26:08;;;;;;;6.30;2.60;;;;;;;4.17;51.48;95982.41;5112061;28;20040;-67
2021/04/05 01:28:34;;;;;;;7.03;2.60;;;;;;;4.19;51.55;95980.25;5113838;28;20039;-67
2021/04/05 01:31:02;;;;;;;6.70;2.40;;;;;;;4.20;51.94;95968.38;5112576;28;20043;-67
2021/04/05 01:33:30;;;;;;;7.63;3.42;;;;;;;4.14;51.69;95964.13;5113539;28;20093;-67
2021/04/05 01:35:58;;;;;;;8.85;2.60;;;;;;;3.92;52.23;95962.75;5112726;28;20413;-67
2021/04/05 01:38:26;;;;;;;6.05;2.50;;;;;;;3.73;52.93;95959.16;5112754;28;20044;-67
2021/04/05 01:40:55;;;;;;;5.72;2.63;;;;;;;3.60;53.38;95952.56;5112808;28;20093;-67
2021/04/05 01:43:21;;;;;;;7.35;2.88;;;;;;;3.46;53.97;95937.34;5112488;28;20047;-67
2021/04/05 01:45:47;;;;;;;5.72;3.35;;;;;;;3.43;54.10;95935.19;5113094;28;20040;-67
2021/04/05 01:48:14;;;;;;;5.32;2.67;;;;;;;3.53;53.73;95932.41;5112019;28;20516;-67
2021/04/05 01:50:41;;;;;;;5.00;2.63;;;;;;;3.61;53.46;95943.38;5113283;28;20047;-67
2021/04/05 01:53:08;;;;;;;5.72;2.88;;;;;;;3.63;53.53;95940.41;5111644;28;20059;-67
2021/04/05 01:55:35;;;;;;;5.32;2.72;;;;;;;3.67;53.37;95942.25;5113571;28;20118;-67
2021/04/05 01:58:04;;;;;;;4.60;2.58;;;;;;;3.51;53.84;95935.41;5112159;28;20502;-67
2021/04/05 02:00:34;;;;;;;3.95;2.40;;;;;;;3.40;54.23;95940.06;5112941;28;20491;-67
2021/04/05 02:03:05;;;;;;;4.60;2.65;;;;;;;3.31;54.57;95941.75;5112472;28;20043;-67
2021/04/05 02:05:31;;;;;;;8.40;2.60;;;;;;;3.24;54.79;95935.91;5112354;28;20046;-67
2021/04/05 02:07:57;;;;;;;5.85;2.80;;;;;;;3.31;54.81;95925.59;5112665;28;20059;-67
2021/04/05 02:10:26;;;;;;;5.53;2.33;;;;;;;3.29;54.76;95927.78;5111585;28;20040;-67
2021/04/05 02:12:53;;;;;;;4.10;2.38;;;;;;;3.43;55.08;95919.84;5113031;28;20065;-67
2021/04/05 02:15:23;;;;;;;4.72;2.40;;;;;;;3.53;54.81;95908.19;5111266;28;20054;-67
2021/04/05 02:17:49;;;;;;;6.50;2.42;;;;;;;3.52;54.11;95909.28;5112988;28;20451;-67
2021/04/05 02:20:16;;;;;;;4.80;2.53;;;;;;;3.51;54.08;95905.78;5110922;28;20050;-67
2021/04/05 02:22:45;;;;;;;4.80;2.13;;;;;;;3.53;54.29;95894.72;5112521;28;20093;-67
2021/04/05 02:25:13;;;;;;;4.07;2.45;;;;;;;3.57;53.87;95890.41;5111353;28;20402;-67
2021/04/05 02:27:41;;;;;;;5.38;2.83;;;;;;;3.61;54.10;95881.47;5111964;28;20055;-67
2021/04/05 02:30:09;;;;;;;4.68;2.53;;;;;;;3.71;54.46;95874.34;5111793;28;20406;-67
2021/04/05 02:32:38;;;;;;;9.65;2.38;;;;;;;3.76;53.42;95879.69;5112647;28;20043;-67
2021/04/05 02:35:06;;;;;;;5.22;2.83;;;;;;;3.72;53.37;95886.75;5112460;28;20442;-67
2021/04/05 02:37:32;;;;;;;3.88;2.60;;;;;;;3.66;53.50;95880.63;5111119;28;20039;-67
2021/04/05 02:40:00;;;;;;;4.55;2.35;;;;;;;3.66;53.55;95886.00;5112192;28;20064;-67
2021/04/05 02:42:27;;;;;;;4.63;2.40;;;;;;;3.73;53.48;95881.06;5111236;28;20036;-67
2021/04/05 02:44:54;;;;;;;4.90;2.50;;;;;;;3.75;53.58;95883.47;5112096;28;20411;-67
2021/04/05 02:47:20;;;;;;;4.38;2.38;;;;;;;3.69;53.72;95881.91;5110967;28;20040;-67
2021/04/05 02:49:47;;;;;;;6.07;2.33;;;;;;;3.65;53.72;95878.97;5111608;28;20043;-67
2021/04/05 02:52:14;;;;;;;7.20;2.70;;;;;;;3.66;53.75;95878.72;5111160;28;20051;-67
2021/04/05 02:54:40;;;;;;;5.97;2.40;;;;;;;3.61;53.77;95876.09;5111394;28;20554;-67
2021/04/05 02:57:07;;;;;;;4.20;2.50;;;;;;;3.71;53.71;95869.78;5111288;28;20043;-67
2021/04/05 02:59:33;;;;;;;5.60;2.60;;;;;;;3.73;53.73;95864.91;5110967;28;20061;-67
2021/04/05 03:02:00;;;;;;;5.07;2.45;;;;;;;3.75;53.71;95843.88;5112136;28;20514;-67
2021/04/05 03:04:26;;;;;;;4.15;2.30;;;;;;;3.81;53.70;95848.13;5110221;28;20044;-67
2021/04/05 03:06:54;;;;;;;5.20;2.60;;;;;;;3.76;53.31;95844.66;5112049;28;20047;-67
2021/04/05 03:09:20;;;;;;;4.88;2.22;;;;;;;3.75;53.48;95841.19;5110207;28;20103;-67
2021/04/05 03:11:49;;;;;;;5.38;2.60;;;;;;;3.79;53.63;95833.34;5111526;28;20038;-67
2021/04/05 03:14:16;;;;;;;4.40;2.60;;;;;;;3.84;54.29;95831.38;5110678;28;20092;-67
2021/04/05 03:16:45;;;;;;;7.18;2.65;;;;;;;3.87;53.91;95822.75;5111049;28;20093;-67
2021/04/05 03:19:12;;;;;;;4.43;2.28;;;;;;;3.92;53.43;95813.81;5110588;28;20043;-67
2021/04/05 03:21:41;;;;;;;6.32;2.70;;;;;;;3.92;53.46;95803.81;5110472;28;20036;-67
2021/04/05 03:24:10;;;;;;;5.05;2.65;;;;;;;3.88;53.15;95800.09;5111188;28;20047;-68
2021/04/05 03:26:36;;;;;;;6.70;2.92;;;;;;;3.75;53.52;95790.00;5110193;28;20040;-67
2021/04/05 03:29:02;;;;;;;4.43;2.75;;;;;;;3.76;53.91;95797.03;5111062;28;20046;-67
2021/04/05 03:31:34;;;;;;;6.72;2.60;;;;;;;3.73;54.14;95786.81;5110625;28;20101;-67
2021/04/05 03:34:05;;;;;;;5.80;2.20;;;;;;;3.81;53.81;95794.28;5111073;28;20039;-67
2021/04/05 03:36:36;;;;;;;3.58;2.28;;;;;;;3.73;53.74;95781.44;5110224;28;20054;-67
2021/04/05 03:39:04;;;;;;;4.80;2.55;;;;;;;3.81;53.62;95779.97;5110115;28;20579;-67
2021/04/05 03:41:41;;;;;;;5.60;2.95;;;;;;;3.84;53.43;95777.50;5111271;28;20040;-66
2021/04/05 03:44:17;;;;;;;6.05;2.50;;;;;;;3.87;53.26;95760.00;5109644;28;20688;-67
2021/04/05 03:46:46;;;;;;;5.55;2.30;;;;;;;3.93;53.29;95759.63;5108661;28;20040;-66
2021/04/05 03:49:22;;;;;;;6.90;3.00;;;;;;;3.95;53.19;95756.63;5108138;28;20444;-66
2021/04/05 03:51:53;;;;;;;6.43;2.70;;;;;;;3.99;53.15;95751.47;5110607;28;20093;-66
2021/04/05 03:54:22;;;;;;;6.75;2.38;;;;;;;3.96;52.98;95752.03;5110012;28;20460;-66
2021/04/05 03:56:52;;;;;;;5.75;2.58;;;;;;;3.95;53.55;95742.38;5110245;28;20079;-66
2021/04/05 03:59:24;;;;;;;5.00;2.65;;;;;;;3.98;53.15;95749.88;5110454;28;20046;-66
2021/04/05 04:01:55;;;;;;;6.32;2.60;;;;;;;3.96;52.95;95752.03;5109943;28;20044;-67
2021/04/05 04:04:26;;;;;;;7.25;2.80;;;;;;;3.93;53.23;95742.66;5110854;28;20047;-67
2021/04/05 04:07:00;;;;;;;4.30;2.67;;;;;;;3.97;52.93;95742.88;5109809;28;20502;-66
2021/04/05 04:09:29;;;;;;;6.00;2.70;;;;;;;3.98;53.04;95741.81;5110603;28;20059;-67
2021/04/05 04:11:57;;;;;;;6.35;2.47;;;;;;;3.96;53.02;95733.19;5110187;28;20054;-66
2021/04/05 04:14:25;;;;;;;5.20;2.47;;;;;;;3.97;53.05;95737.47;5109892;28;20040;-67
2021/04/05 04:16:52;;;;;;;4.25;2.25;;;;;;;3.96;53.08;95735.88;5110308;28;20044;-66
2021/04/05 04:19:20;;;;;;;5.63;2.30;;;;;;;3.96;52.91;95728.59;5108846;28;20043;-66
2021/04/05 04:21:47;;;;;;;5.55;2.55;;;;;;;3.97;53.18;95721.31;5124741;28;20047;-66
2021/04/05 04:24:14;;;;;;;5.45;2.40;;;;;;;3.91;52.98;95718.72;5109173;28;20131;-66
2021/04/05 04:26:41;;;;;;;4.55;2.45;;;;;;;3.84;53.09;95710.19;5110662;28;20606;-66
2021/04/05 04:29:12;;;;;;;7.63;2.72;;;;;;;3.83;53.28;95711.28;5089852;28;20048;-66
2021/04/05 04:31:39;;;;;;;5.93;2.38;;;;;;;3.76;53.44;95700.09;5090218;28;20250;-66
2021/04/05 04:34:05;;;;;;;6.57;2.20;;;;;;;3.83;53.46;95700.50;5089224;28;20047;-67
2021/04/05 04:36:31;;;;;;;5.30;2.25;;;;;;;3.82;53.25;95693.53;5089958;28;20036;-66
2021/04/05 04:38:57;;;;;;;5.60;2.40;;;;;;;3.76;53.47;95692.00;5089871;28;20048;-67
2021/04/05 04:41:25;;;;;;;4.82;2.30;;;;;;;3.75;53.63;95681.50;5088899;28;20051;-66
2021/04/05 04:43:56;;;;;;;3.92;2.30;;;;;;;3.76;53.60;95683.09;5090163;28;20051;-66
2021/04/05 04:46:23;;;;;;;5.70;2.42;;;;;;;3.80;53.29;95679.53;5088385;28;20056;-66
2021/04/05 04:48:54;;;;;;;5.38;2.30;;;;;;;3.90;53.45;95671.31;5107925;28;20051;-66
2021/04/05 04:51:20;;;;;;;4.68;2.42;;;;;;;3.86;53.21;95666.78;5108779;28;20036;-66
2021/04/05 04:53:46;;;;;;;7.13;2.63;;;;;;;3.95;53.34;95669.63;5110319;28;20122;-66
2021/04/05 04:56:12;;;;;;;5.72;3.00;;;;;;;3.87;53.20;95669.22;5109134;28;20402;-67
2021/04/05 04:58:38;;;;;;;6.72;2.83;;;;;;;3.85;53.13;95666.00;5109961;28;20043;-66
2021/04/05 05:01:04;;;;;;;6.93;2.67;;;;;;;3.83;53.14;95667.38;5109439;28;20043;-66
2021/04/05 05:03:33;;;;;;;7.82;2.50;;;;;;;3.79;53.38;95656.41;5113542;28;20494;-67
2021/04/05 05:06:00;;;;;;;5.50;2.38;;;;;;;3.83;53.38;95656.63;5113914;28;20043;-66
2021/04/05 05:08:26;;;;;;;5.40;2.45;;;;;;;3.85;53.31;95660.59;5112849;28;20538;-66
2021/04/05 05:10:53;;;;;;;3.97;2.28;;;;;;;3.82;53.33;95661.22;5114229;28;20047;-66
2021/04/05 05:13:20;;;;;;;6.13;2.70;;;;;;;3.85;53.44;95659.81;5112689;28;20185;-66
2021/04/05 05:15:47;;;;;;;4.47;2.30;;;;;;;3.84;53.28;95659.00;5114255;28;20047;-66
2021/04/05 05:18:13;;;;;;;5.15;2.50;;;;;;;3.87;53.38;95663.81;5111933;28;20040;-67
2021/04/05 05:20:40;;;;;;;8.02;2.35;;;;;;;3.74;53.69;95669.94;5113662;28;20051;-66
2021/04/05 05:23:08;;;;;;;5.65;2.42;;;;;;;3.69;53.98;95661.13;5115611;27;20040;-69
2021/04/05 05:25:36;;;;;;;5.47;2.25;;;;;;;3.72;53.99;95655.97;5113099;28;20042;-66
2021/04/05 05:28:05;;;;;;;5.65;2.50;;;;;;;3.72;54.15;95655.97;5113149;28;20039;-67
2021/04/05 05:30:31;;;;;;;5.40;2.35;;;;;;;3.73;54.04;95660.25;5112461;28;20563;-66
2021/04/05 05:33:00;;;;;;;6.65;2.38;;;;;;;3.72;54.25;95661.34;5113900;28;20066;-66
2021/04/05 05:35:27;;;;;;;6.18;2.40;;;;;;;3.73;54.25;95668.34;5112279;28;20036;-66
2021/04/05 05:37:59;;;;;;;5.00;2.75;;;;;;;3.80;54.22;95658.00;5113666;28;20402;-67
2021/04/05 05:40:27;;;;;;;8.93;2.45;;;;;;;3.86;54.30;95646.06;5113166;28;20036;-66
2021/04/05 05:43:09;;;;;;;5.32;2.58;;;;;;;3.95;53.73;95642.69;5113166;28;20040;-67
2021/04/05 05:45:41;;;;;;;4.90;2.20;;;;;;;4.08;53.39;95633.88;5113116;28;20085;-66
2021/04/05 05:48:19;;;;;;;4.20;2.50;;;;;;;4.13;53.38;95637.31;5111644;28;20039;-67
2021/04/05 05:50:54;;;;;;;5.53;2.22;;;;;;;4.17;53.34;95624.81;5113180;28;20491;-66
2021/04/05 05:53:31;;;;;;;6.32;2.45;;;;;;;4.23;53.31;95624.72;5111978;28;20446;-66
2021/04/05 05:56:33;;;;;;;4.50;2.50;;;;;;;4.33;53.14;95622.69;5095063;28;20051;-66
2021/04/05 05:59:06;;;;;;;6.97;2.65;;;;;;;4.42;53.23;95620.88;5069952;28;20040;-66
2021/04/05 06:01:39;;;;;;;;;;;;;;;4.42;53.15;95620.88;5092305;28;20044;-67
2021/04/05 06:04:14;;;;;;;4.35;2.65;;;;;;;4.41;53.21;95627.38;5092414;28;19920;-67
2021/04/05 06:06:53;;;;;;;4.93;2.55;;;;;;;4.42;52.80;95618.19;5091682;28;20104;-67
2021/04/05 06:09:32;;;;;;;6.43;2.58;;;;;;;4.48;53.19;95615.41;5091955;28;20499;-66
2021/04/05 06:12:05;;;;;;;11.15;3.58;;;;;;;4.50;52.92;95616.72;5091975;28;20548;-66
2021/04/05 06:14:47;;;;;;;3.97;2.63;;;;;;;4.58;52.87;95612.53;5090779;28;20059;-66
2021/04/05 06:17:21;;;;;;;9.73;2.50;;;;;;;4.66;52.90;95614.56;5096513;28;20035;-66
2021/04/05 06:19:50;;;;;;;4.38;2.72;;;;;;;4.75;52.57;95611.94;5112813;28;20039;-66
2021/04/05 06:22:26;;;;;;;6.20;2.83;;;;;;;4.86;52.35;95608.78;5112261;28;20036;-66
2021/04/05 06:25:02;;;;;;;7.40;2.20;;;;;;;5.00;51.91;95607.97;5111995;28;20040;-66
2021/04/05 06:27:37;;;;;;;5.60;2.75;;;;;;;5.08;52.04;95588.38;5111980;28;20044;-66
2021/04/05 06:30:08;;;;;;;4.72;2.30;;;;;;;5.21;51.91;95582.16;5111903;28;20036;-67
2021/04/05 06:32:39;;;;;;;7.78;2.80;;;;;;;5.38;51.46;95574.25;5111954;28;20066;-66
2021/04/05 06:35:55;;;;;;;5.10;2.72;;;;;;;5.60;50.75;95567.28;5112210;28;20093;-67
2021/04/05 06:38:25;;;;;;;9.60;2.67;;;;;;;5.84;50.16;95567.78;5111263;28;20100;-67
2021/04/05 06:40:55;;;;;;;8.43;2.88;;;;;;;5.96;49.69;95565.38;5112130;28;20048;-67
2021/04/05 06:43:36;;;;;;;5.80;2.45;;;;;;;6.09;49.38;95558.28;5111540;28;20056;-68
2021/04/05 06:46:17;;;;;;;5.93;2.60;;;;;;;6.25;49.04;95551.38;5110989;28;20399;-67
2021/04/05 06:49:17;;;;;;;6.03;2.60;;;;;;;6.39;49.62;95545.91;5111533;28;20073;-66
2021/04/05 06:52:05;;;;;;;5.22;2.50;;;;;;;6.51;49.10;95548.81;5125809;27;20055;-66
2021/04/05 06:55:08;;;;;;;9.93;2.95;;;;;;;6.72;49.19;95542.84;5111399;28;20038;-66
2021/04/05 06:57:50;;;;;;;4.30;2.47;;;;;;;6.89;48.17;95537.50;5111996;28;20040;-66
2021/04/05 07:00:22;;;;;;;5.00;2.78;;;;;;;7.19;47.51;95529.59;5110641;28;20044;-66
2021/04/05 07:03:15;;;;;;;6.97;3.00;;;;;;;7.55;47.38;95538.25;5111770;28;20456;-66
2021/04/05 07:05:56;;;;;;;6.43;2.92;;;;;;;7.83;44.52;95529.81;5111458;28;20046;-66
2021/04/05 07:08:29;;;;;;;7.05;3.00;;;;;;;8.00;44.55;95532.50;5110406;28;20039;-67
2021/04/05 07:11:08;;;;;;;5.95;3.03;;;;;;;8.21;44.13;95521.75;5111980;28;20428;-66
2021/04/05 07:13:48;;;;;;;4.47;2.75;;;;;;;8.41;42.61;95520.31;5110682;28;20101;-67
2021/04/05 07:16:25;;;;;;;8.10;2.90;;;;;;;8.57;41.27;95523.28;5111137;28;20661;-67
2021/04/05 07:19:00;;;;;;;8.60;3.22;;;;;;;8.72;41.23;95511.06;5110535;28;20140;-67
2021/04/05 07:21:39;;;;;;;6.97;3.05;;;;;;;8.93;40.39;95522.81;5110356;28;20039;-66
2021/04/05 07:24:21;;;;;;;7.82;3.35;;;;;;;9.18;39.74;95501.25;5110908;28;20044;-67
2021/04/05 07:26:54;;;;;;;10.30;3.38;;;;;;;9.62;38.37;95491.66;5110437;28;20046;-66
2021/04/05 07:29:26;;;;;;;9.07;3.30;;;;;;;9.97;38.33;95486.72;5110942;28;20043;-67
2021/04/05 07:31:59;;;;;;;9.10;2.90;;;;;;;10.04;37.04;95481.50;5110843;28;20035;-67
2021/04/05 07:34:46;;;;;;;6.18;2.88;;;;;;;10.01;37.72;95476.72;5110159;28;20069;-67
2021/04/05 07:37:30;;;;;;;6.32;2.90;;;;;;;10.06;37.10;95473.78;5110856;28;20071;-67
2021/04/05 07:40:05;;;;;;;6.70;3.03;;;;;;;10.42;37.22;95461.44;5110256;28;20051;-67
2021/04/05 07:42:42;;;;;;;6.40;2.72;;;;;;;10.34;36.22;95463.13;5111160;28;20127;-67
2021/04/05 07:45:15;;;;;;;7.53;3.20;;;;;;;10.35;35.66;95464.72;5109910;28;20058;-67
2021/04/05 07:47:48;;;;;;;7.70;3.38;;;;;;;10.30;36.12;95456.00;5109969;28;20043;-67
2021/04/05 07:50:24;;;;;;;5.72;3.00;;;;;;;10.41;36.69;95462.56;5110301;28;20035;-67
2021/04/05 07:52:58;;;;;;;7.88;2.88;;;;;;;10.64;36.67;95455.53;5114939;27;20047;-67
2021/04/05 07:55:24;;;;;;;6.18;3.00;;;;;;;10.82;35.82;95441.72;5110799;28;20620;-67
2021/04/05 07:57:59;;;;;;;5.13;2.88;;;;;;;10.84;35.60;95439.44;5109857;28;20039;-67
2021/04/05 08:00:33;;;;;;;7.93;2.90;;;;;;;11.05;35.25;95445.53;5110670;28;20513;-67
2021/04/05 08:03:15;;;;;;;6.22;2.85;;;;;;;11.24;34.36;95432.13;5110276;28;20039;-67
2021/04/05 08:05:57;;;;;;;5.57;3.13;;;;;;;11.49;33.42;95435.56;5110271;28;20040;-67
2021/04/05 08:08:47;;;;;;;6.25;2.88;;;;;;;11.60;34.28;95427.69;5110527;28;20046;-67
2021/04/05 08:11:27;;;;;;;10.15;3.38;;;;;;;12.32;34.06;95415.97;5097280;28;20050;-66
2021/04/05 08:14:04;;;;;;;5.82;3.05;;;;;;;12.65;31.72;95421.88;5110791;28;20073;-66
2021/04/05 08:16:40;;;;;;;5.38;3.00;;;;;;;12.60;31.55;95410.44;5109888;28;20123;-67
2021/04/05 08:19:13;;;;;;;5.38;2.78;;;;;;;12.92;32.46;95416.63;5107161;28;20092;-68
2021/04/05 08:21:44;;;;;;;7.37;2.83;;;;;;;13.25;31.12;95427.94;5110599;28;20039;-67
2021/04/05 08:24:19;;;;;;;8.48;3.30;;;;;;;13.49;30.73;95415.19;5109305;28;20280;-67
2021/04/05 08:26:49;;;;;;;4.60;2.70;;;;;;;13.16;30.54;95399.22;5110742;28;20039;-67
2021/04/05 08:29:23;;;;;;;6.55;2.80;;;;;;;12.99;31.49;95405.84;5110151;28;20044;-66
2021/04/05 08:32:18;;;;;;;6.53;2.90;;;;;;;13.36;30.59;95397.31;5110671;28;20039;-66
2021/04/05 08:35:00;;;;;;;13.05;3.00;;;;;;;13.55;30.45;95405.53;5110139;28;20066;-66
2021/04/05 08:37:36;;;;;;;21.88;3.95;;;;;;;13.03;29.78;95396.59;5111548;28;20046;-67
2021/04/05 08:40:09;;;;;;;6.82;3.10;;;;;;;12.84;30.83;95403.94;5114503;28;20048;-67
2021/04/05 08:42:48;;;;;;;9.70;3.10;;;;;;;12.57;30.90;95392.00;5113760;28;20043;-66
2021/04/05 08:45:19;;;;;;;8.95;2.97;;;;;;;12.96;31.80;95395.66;5114145;28;20082;-67
2021/04/05 08:47:52;;;;;;;7.53;3.10;;;;;;;13.56;31.24;95379.75;5113238;28;20070;-67
2021/04/05 08:50:20;;;;;;;;;;;;;;;14.17;29.75;95387.16;5113896;28;20040;-67
2021/04/05 08:52:50;;;;;;;5.88;2.65;;;;;;;14.04;30.10;95383.81;5114384;28;19939;-67
2021/04/05 08:55:20;;;;;;;8.40;3.00;;;;;;;14.20;29.28;95380.97;5112848;28;20494;-67
2021/04/05 08:57:52;;;;;;;7.22;3.03;;;;;;;14.43;29.62;95386.44;5114418;28;20402;-67
2021/04/05 09:00:19;;;;;;;8.38;2.90;;;;;;;14.26;29.11;95363.06;5095406;28;20040;-67
2021/04/05 09:02:48;;;;;;;7.70;2.80;;;;;;;14.16;30.53;95369.16;5114161;28;20043;-66
2021/04/05 09:05:19;;;;;;;8.88;3.22;;;;;;;14.23;30.68;95363.78;5112993;28;20039;-66
2021/04/05 09:07:57;;;;;;;7.70;2.92;;;;;;;14.25;29.25;95352.47;5114120;28;20044;-67
2021/04/05 09:10:27;;;;;;;9.05;3.17;;;;;;;14.73;29.35;95353.69;5113674;28;20448;-67
2021/04/05 09:12:56;;;;;;;8.68;2.70;;;;;;;14.88;28.89;95343.72;5113078;28;20043;-66
2021/04/05 09:16:01;;;;;;;14.45;2.72;;;;;;;14.72;28.18;95340.31;5113590;28;20044;-69
2021/04/05 09:18:49;;;;;;;7.97;2.60;;;;;;;14.64;27.17;95344.91;5080197;28;20039;-67
2021/04/05 09:21:29;;;;;;;12.27;2.95;;;;;;;14.40;28.47;95334.31;5112988;28;20044;-66
2021/04/05 09:24:37;;;;;;;7.68;2.50;;;;;;;14.44;28.90;95329.69;5113832;28;20051;-67
2021/04/05 09:27:31;;;;;;;3.72;2.10;;;;;;;14.50;27.66;95317.31;5049658;28;20053;-67
2021/04/05 09:30:27;;;;;;;8.32;2.20;;;;;;;14.24;28.35;95321.56;5050130;28;20041;-68
2021/04/05 09:33:34;;;;;;;11.05;2.25;;;;;;;14.17;29.46;95313.25;5106588;28;20036;-66
2021/04/05 09:36:13;;;;;;;7.70;2.13;;;;;;;14.03;28.80;95304.78;5113752;28;20112;-67
2021/04/05 09:38:56;;;;;;;5.97;2.28;;;;;;;13.84;29.85;95320.13;5113301;28;20043;-66
2021/04/05 09:41:44;;;;;;;7.55;2.10;;;;;;;13.66;29.22;95319.00;5112943;28;20542;-68
2021/04/05 09:44:41;;;;;;;8.70;2.50;;;;;;;13.82;29.71;95314.19;5111893;28;20050;-67
2021/04/05 09:47:28;;;;;;;5.22;2.15;;;;;;;13.73;31.50;95288.22;5112245;28;20082;-66
2021/04/05 09:50:09;;;;;;;6.88;2.05;;;;;;;14.22;30.36;95295.72;5112620;28;20051;-66
2021/04/05 09:52:59;;;;;;;5.50;2.70;;;;;;;14.03;29.17;95291.88;5113255;27;20047;-66
2021/04/05 09:55:31;;;;;;;9.57;2.10;;;;;;;14.00;30.37;95283.63;5112841;28;20047;-66
2021/04/05 09:58:02;;;;;;;8.35;2.22;;;;;;;13.96;30.40;95282.78;5112224;28;20050;-67
2021/04/05 10:00:30;;;;;;;6.97;2.53;;;;;;;13.80;29.65;95272.75;5113053;28;20042;-67
2021/04/05 10:03:00;;;;;;;7.22;1.90;;;;;;;14.05;31.08;95275.13;5112089;28;20039;-67
2021/04/05 10:05:28;;;;;;;9.65;2.20;;;;;;;14.47;29.40;95260.50;5112742;28;20044;-67
2021/04/05 10:07:57;;;;;;;7.90;2.00;;;;;;;14.16;28.89;95253.38;5112307;28;20452;-66
2021/04/05 10:10:25;;;;;;;6.63;2.00;;;;;;;14.15;29.66;95255.34;5111653;28;20118;-67
2021/04/05 10:12:54;;;;;;;5.90;2.00;;;;;;;13.92;29.36;95257.28;5112796;28;20104;-67
2021/04/05 10:15:23;;;;;;;7.15;2.53;;;;;;;13.56;29.25;95246.53;5111210;28;20055;-68
2021/04/05 10:17:52;;;;;;;6.32;1.92;;;;;;;13.51;31.00;95251.50;5112372;27;20040;-68
2021/04/05 10:20:24;;;;;;;6.85;2.10;;;;;;;13.51;30.51;95229.63;5111373;28;20042;-67
2021/04/05 10:22:51;;;;;;;5.80;1.92;;;;;;;13.71;30.09;95222.94;5113594;27;20112;-66
2021/04/05 10:25:21;;;;;;;7.07;2.08;;;;;;;13.72;28.75;95224.53;5111136;28;20043;-68
2021/04/05 10:27:49;;;;;;;5.00;2.55;;;;;;;13.57;29.76;95228.97;5112183;28;20036;-67
2021/04/05 10:30:18;;;;;;;11.70;2.00;;;;;;;13.64;29.46;95217.38;5111703;28;20096;-66
2021/04/05 10:32:45;;;;;;;7.85;2.00;;;;;;;13.64;29.88;95211.88;5111836;28;20047;-65
2021/04/05 10:35:15;;;;;;;4.32;1.67;;;;;;;13.83;29.61;95235.63;5112090;28;20044;-66
2021/04/05 10:37:46;;;;;;;6.50;2.17;;;;;;;13.66;29.34;95209.56;5111224;28;20035;-69
2021/04/05 10:40:13;;;;;;;4.53;1.98;;;;;;;13.76;30.69;95203.47;5112033;28;20050;-68
2021/04/05 10:42:48;;;;;;;7.55;1.90;;;;;;;13.99;30.40;95200.75;5110716;28;20047;-68
2021/04/05 10:45:19;;;;;;;3.92;1.85;;;;;;;13.82;29.38;95207.50;5111676;28;20048;-68
2021/04/05 10:47:55;;;;;;;4.43;2.03;;;;;;;13.61;29.61;95198.16;5110796;28;20043;-68
2021/04/05 10:50:27;;;;;;;4.93;1.80;;;;;;;13.38;28.96;95187.22;5110954;28;20067;-66
2021/04/05 10:52:54;;;;;;;4.03;1.65;;;;;;;13.54;29.78;95174.22;5112048;28;20040;-67
2021/04/05 10:55:23;;;;;;;4.95;1.67;;;;;;;13.51;30.86;95183.13;5110499;28;20528;-66
2021/04/05 10:57:54;;;;;;;7.10;2.05;;;;;;;13.72;31.30;95164.31;5112233;28;20051;-67
2021/04/05 11:00:27;;;;;;;8.30;2.28;;;;;;;13.92;30.75;95172.47;5109837;28;20065;-67
2021/04/05 11:02:59;;;;;;;5.10;1.90;;;;;;;13.76;29.65;95178.88;5111786;28;20067;-66
2021/04/05 11:05:25;;;;;;;3.10;2.20;;;;;;;13.55;29.95;95170.31;5110850;28;20043;-67
2021/04/05 11:07:57;;;;;;;6.70;2.30;;;;;;;13.53;30.05;95156.22;5111454;28;20051;-66
2021/04/05 11:10:26;;;;;;;3.85;2.22;;;;;;;13.36;30.91;95159.44;5111147;28;20441;-66
2021/04/05 11:12:56;;;;;;;5.03;2.15;;;;;;;13.36;30.59;95153.97;5110849;28;20046;-67
2021/04/05 11:15:25;;;;;;;7.90;2.78;;;;;;;13.47;31.61;95138.56;5111276;28;20063;-66
2021/04/05 11:17:53;;;;;;;6.15;2.10;;;;;;;13.78;31.53;95151.94;5109931;28;20398;-68
2021/04/05 11:20:26;;;;;;;5.03;2.25;;;;;;;13.68;29.91;95141.63;5131544;27;20438;-68
2021/04/05 11:22:55;;;;;;;6.10;2.17;;;;;;;13.67;30.60;95133.75;5116887;27;20078;-68
2021/04/05 11:25:29;;;;;;;7.72;2.28;;;;;;;13.78;29.64;95135.53;5110819;28;20047;-66
2021/04/05 11:28:00;;;;;;;7.30;1.95;;;;;;;13.65;29.40;95119.69;5110849;28;20089;-66
2021/04/05 11:30:28;;;;;;;10.63;2.10;;;;;;;13.54;29.73;95127.72;5110093;28;20043;-68
2021/04/05 11:32:56;;;;;;;8.82;2.67;;;;;;;13.51;30.34;95114.75;5111456;28;20047;-67
2021/04/05 11:35:30;;;;;;;6.03;2.03;;;;;;;13.60;29.67;95112.56;5109813;28;20085;-66
2021/04/05 11:38:01;;;;;;;7.85;2.30;;;;;;;13.82;30.40;95098.03;5111663;28;20046;-68
2021/04/05 11:40:30;;;;;;;5.38;2.75;;;;;;;14.15;30.35;95093.81;5110108;28;20063;-67
2021/04/05 11:42:58;;;;;;;5.60;2.58;;;;;;;14.57;28.62;95076.34;5111173;28;20105;-67
2021/04/05 11:45:31;;;;;;;9.68;2.60;;;;;;;14.58;29.07;95059.53;5110179;28;20040;-66
2021/04/05 11:47:58;;;;;;;6.57;2.50;;;;;;;14.86;30.43;95078.22;5110123;28;20042;-67
2021/04/05 11:50:27;;;;;;;6.82;2.85;;;;;;;15.11;29.32;95075.72;5130819;27;20046;-67
2021/04/05 11:52:56;;;;;;;6.75;2.45;;;;;;;15.12;28.05;95073.75;5115747;27;20043;-66
2021/04/05 11:55:28;;;;;;;7.60;2.30;;;;;;;14.99;28.67;95058.78;5110936;28;20502;-67
2021/04/05 11:57:59;;;;;;;4.75;2.65;;;;;;;14.79;27.79;95064.44;5110049;28;20051;-67
2021/04/05 12:00:30;;;;;;;6.30;2.40;;;;;;;14.68;27.14;95066.28;5110754;28;20039;-67